Marlboro College, Vermont
Current Conditions -  °F | °C
As of 12:55 PM on Monday 24 Nov 2014 (Local Time) from KEEN Reporting Station
Overcast Overcast  
Wind Chill: 64°   Ceiling: 2600
Heat Index: 64°   Visibility: 9mi
Dew Point: 57°   Wind: 12mph
Humidity: 77%   Direction: 190°S
Pressure: 29.57"   Gusts: 22mph
Location:  42.8549°N, 72.6883°W
Report Text: KEEN 241755Z AUTO 19010G19KT 9SM SCT019 OVC026 18/14 A2957 RMK AO1 60010 10180 20110 57030
Loading
Personal Weather Stations






























Interactive Weather Map New forecast layout! Learn more

10-Day Weather Forecast

Advertisements
Track Severe Weather on mobile